createdAt,value
2023-03-21T00:00:42.832Z,21.13
2023-03-21T00:03:09.535Z,21.02
2023-03-21T00:05:45.781Z,22.75
2023-03-21T00:08:12.498Z,17.30
2023-03-21T00:10:41.313Z,18.17
2023-03-21T00:13:13.473Z,19.73
2023-03-21T00:16:04.035Z,20.88
2023-03-21T00:18:41.909Z,15.65
2023-03-21T00:24:01.360Z,16.80
2023-03-21T00:26:28.309Z,18.85
2023-03-21T00:28:54.966Z,20.38
2023-03-21T00:31:21.605Z,20.35
2023-03-21T00:33:48.577Z,21.58
2023-03-21T00:36:16.140Z,21.98
2023-03-21T00:38:43.428Z,21.73
2023-03-21T00:41:23.378Z,24.77
2023-03-21T00:43:58.480Z,20.08
2023-03-21T00:46:30.031Z,24.38
2023-03-21T00:48:59.561Z,29.13
2023-03-21T00:51:27.086Z,28.90
2023-03-21T00:53:55.852Z,26.55
2023-03-21T00:56:23.228Z,24.65
2023-03-21T00:58:50.165Z,29.13
2023-03-21T01:01:17.571Z,26.33
2023-03-21T01:03:50.801Z,25.10
2023-03-21T01:06:19.650Z,25.13
2023-03-21T01:08:52.781Z,27.40
2023-03-21T01:11:25.788Z,25.27
2023-03-21T01:13:59.605Z,24.48
2023-03-21T01:16:31.942Z,19.00
2023-03-21T01:18:59.660Z,23.35
2023-03-21T01:21:26.532Z,21.60
2023-03-21T01:23:53.752Z,20.48
2023-03-21T01:26:20.999Z,22.83
2023-03-21T01:28:47.596Z,20.73
2023-03-21T01:31:16.985Z,20.58
2023-03-21T01:33:44.584Z,23.98
2023-03-21T01:36:19.308Z,19.70
2023-03-21T01:38:48.548Z,21.52
2023-03-21T01:41:41.907Z,20.48
2023-03-21T01:44:18.260Z,18.90
2023-03-21T01:49:41.025Z,21.60
2023-03-21T01:52:26.396Z,20.77
2023-03-21T01:54:58.693Z,18.70
2023-03-21T01:57:42.417Z,15.88
2023-03-21T02:00:15.474Z,20.77
2023-03-21T02:03:06.123Z,18.58
2023-03-21T02:06:01.390Z,16.73
2023-03-21T02:08:39.134Z,15.40
2023-03-21T02:11:07.834Z,14.50
2023-03-21T02:13:35.681Z,18.42
2023-03-21T02:16:15.426Z,20.50
2023-03-21T02:19:02.371Z,20.88
2023-03-21T02:21:47.198Z,23.88
2023-03-21T02:24:41.105Z,20.17
2023-03-21T02:27:24.465Z,19.88
2023-03-21T02:30:00.485Z,23.42
2023-03-21T02:32:39.126Z,25.40
2023-03-21T02:35:09.049Z,28.02
2023-03-21T02:37:44.619Z,23.52
2023-03-21T02:40:27.994Z,22.63
2023-03-21T02:43:22.156Z,23.45
2023-03-21T02:46:09.422Z,24.70
2023-03-21T02:48:50.300Z,25.42
2023-03-21T02:51:22.599Z,24.95
2023-03-21T02:54:24.932Z,25.70
2023-03-21T02:56:50.137Z,19.90
2023-03-21T02:59:19.972Z,23.08
2023-03-21T03:01:46.664Z,22.70
2023-03-21T03:04:21.367Z,19.25
2023-03-21T03:07:08.753Z,19.25
2023-03-21T03:09:53.991Z,21.85
2023-03-21T03:12:45.840Z,22.23
2023-03-21T03:15:51.924Z,21.95
2023-03-21T03:18:22.755Z,20.63
2023-03-21T03:21:00.817Z,19.38
2023-03-21T03:23:40.790Z,20.50
2023-03-21T03:26:35.422Z,17.17
2023-03-21T03:29:07.537Z,17.20
2023-03-21T03:31:39.700Z,16.00
2023-03-21T03:34:11.481Z,16.38
2023-03-21T03:36:47.679Z,16.90
2023-03-21T03:39:17.478Z,17.15
2023-03-21T03:42:25.326Z,20.77
2023-03-21T03:44:42.342Z,17.23
2023-03-21T03:47:20.117Z,19.38
2023-03-21T03:50:02.317Z,19.67
2023-03-21T03:52:35.780Z,17.75
2023-03-21T03:55:03.286Z,21.50
2023-03-21T03:57:30.222Z,20.45
2023-03-21T03:59:57.008Z,18.52
2023-03-21T04:02:23.723Z,18.20
2023-03-21T04:04:53.082Z,19.00
2023-03-21T04:07:21.575Z,18.58
2023-03-21T04:09:48.502Z,20.88
2023-03-21T04:12:15.422Z,17.63
2023-03-21T04:14:47.249Z,18.08
2023-03-21T04:17:15.774Z,17.30
2023-03-21T04:19:42.801Z,17.70
2023-03-21T04:22:09.588Z,17.63
2023-03-21T04:24:37.570Z,18.10
2023-03-21T04:27:05.960Z,18.00
2023-03-21T04:29:33.264Z,17.50
2023-03-21T04:32:00.220Z,18.38
2023-03-21T04:34:28.332Z,16.55
2023-03-21T04:36:55.734Z,18.10
2023-03-21T04:39:24.536Z,21.40
2023-03-21T04:41:51.650Z,18.02
2023-03-21T04:44:19.309Z,22.88
2023-03-21T04:46:46.226Z,21.42
2023-03-21T04:49:13.454Z,19.15
2023-03-21T04:51:41.117Z,20.70
2023-03-21T04:56:35.660Z,18.80
2023-03-21T04:59:08.289Z,17.08
2023-03-21T05:01:35.036Z,17.52
2023-03-21T05:04:03.424Z,17.95
2023-03-21T05:06:30.858Z,18.25
2023-03-21T05:09:01.773Z,17.58
2023-03-21T05:11:30.959Z,18.67
2023-03-21T05:13:58.890Z,16.10
2023-03-21T05:16:30.527Z,17.65
2023-03-21T05:19:04.293Z,16.80
2023-03-21T05:21:42.052Z,18.00
2023-03-21T05:24:12.273Z,24.20
2023-03-21T05:26:40.094Z,19.10
2023-03-21T05:29:07.938Z,24.55
2023-03-21T05:31:34.619Z,22.52
2023-03-21T05:34:01.519Z,23.67
2023-03-21T05:36:28.334Z,21.10
2023-03-21T05:38:55.226Z,22.63
2023-03-21T05:41:21.969Z,24.75
2023-03-21T05:43:48.616Z,22.73
2023-03-21T05:46:15.524Z,23.85
2023-03-21T05:48:48.068Z,24.27
2023-03-21T05:51:15.117Z,26.45
2023-03-21T05:53:42.089Z,28.52
2023-03-21T05:56:09.352Z,35.25
2023-03-21T05:58:35.974Z,47.20
2023-03-21T06:01:02.805Z,35.75
2023-03-21T06:03:29.519Z,35.50
2023-03-21T06:05:56.114Z,27.20
2023-03-21T06:08:23.197Z,23.95
2023-03-21T06:10:50.093Z,27.38
2023-03-21T06:13:16.796Z,27.55
2023-03-21T06:15:43.762Z,25.50
2023-03-21T06:18:10.929Z,20.85
2023-03-21T06:20:37.521Z,19.40
2023-03-21T06:23:04.394Z,21.45
2023-03-21T06:25:31.034Z,18.73
2023-03-21T06:27:57.684Z,17.98
2023-03-21T06:30:24.617Z,16.17
2023-03-21T06:32:51.439Z,18.90
2023-03-21T06:35:18.191Z,18.83
2023-03-21T06:37:46.410Z,18.48
2023-03-21T06:40:13.841Z,18.23
2023-03-21T06:42:40.612Z,18.90
2023-03-21T06:45:08.067Z,20.33
2023-03-21T06:47:35.023Z,17.25
2023-03-21T06:50:01.826Z,20.75
2023-03-21T06:52:28.749Z,21.00
2023-03-21T06:54:55.503Z,19.02
2023-03-21T06:57:22.138Z,15.77
2023-03-21T06:59:49.037Z,13.75
2023-03-21T07:02:16.045Z,10.70
2023-03-21T07:04:43.030Z,13.02
2023-03-21T07:07:09.823Z,11.13
2023-03-21T07:09:36.843Z,8.88
2023-03-21T07:12:03.608Z,10.65
2023-03-21T07:14:32.327Z,11.45
2023-03-21T07:17:00.894Z,8.15
2023-03-21T07:19:27.718Z,9.60
2023-03-21T07:21:54.834Z,8.70
2023-03-21T07:24:21.604Z,9.57
2023-03-21T07:26:48.216Z,8.27
2023-03-21T07:29:15.527Z,9.80
2023-03-21T07:31:42.688Z,8.18
2023-03-21T07:34:09.293Z,8.75
2023-03-21T07:36:37.246Z,8.40
2023-03-21T07:39:04.649Z,10.80
2023-03-21T07:41:31.350Z,9.10
2023-03-21T07:43:58.210Z,9.10
2023-03-21T07:46:25.427Z,10.18
2023-03-21T07:48:52.129Z,10.82
2023-03-21T07:51:19.005Z,10.10
2023-03-21T07:53:48.685Z,10.60
2023-03-21T07:56:16.020Z,9.70
2023-03-21T07:58:43.117Z,9.23
2023-03-21T08:01:09.818Z,9.23
2023-03-21T08:03:36.534Z,10.80
2023-03-21T08:06:03.910Z,10.50
2023-03-21T08:08:30.882Z,8.80
2023-03-21T08:10:57.578Z,9.52
2023-03-21T08:13:26.197Z,8.73
2023-03-21T08:15:53.542Z,10.10
2023-03-21T08:18:20.583Z,8.93
2023-03-21T08:20:53.503Z,10.25
2023-03-21T08:23:21.046Z,11.32
2023-03-21T08:25:52.031Z,10.10
2023-03-21T08:28:19.298Z,10.02
2023-03-21T08:30:46.498Z,10.57
2023-03-21T08:33:16.181Z,9.45
2023-03-21T08:35:43.331Z,11.60
2023-03-21T08:38:10.556Z,11.02
2023-03-21T08:40:37.342Z,10.07
2023-03-21T08:43:04.619Z,9.52
2023-03-21T08:45:31.729Z,10.02
2023-03-21T08:47:58.583Z,10.35
2023-03-21T08:50:29.726Z,11.00
2023-03-21T08:52:56.543Z,8.77
2023-03-21T08:55:23.238Z,8.27
2023-03-21T08:57:50.116Z,9.18
2023-03-21T09:00:18.195Z,8.40
2023-03-21T09:02:47.001Z,9.27
2023-03-21T09:05:14.563Z,10.88
2023-03-21T09:07:41.721Z,11.38
2023-03-21T09:10:26.953Z,9.48
2023-03-21T09:12:55.598Z,9.73
2023-03-21T09:15:25.043Z,10.02
2023-03-21T09:17:58.598Z,10.27
2023-03-21T09:20:31.079Z,9.73
2023-03-21T09:22:59.430Z,10.23
2023-03-21T09:25:29.626Z,9.52
2023-03-21T09:27:56.565Z,10.55
2023-03-21T09:30:26.110Z,9.93
2023-03-21T09:32:55.843Z,10.07
2023-03-21T09:35:24.767Z,9.75
2023-03-21T09:37:51.639Z,11.07
2023-03-21T09:40:32.084Z,11.02
2023-03-21T09:43:35.586Z,12.93
2023-03-21T09:46:15.562Z,10.85
2023-03-21T09:48:57.294Z,10.85
2023-03-21T09:51:29.199Z,10.13
2023-03-21T09:54:00.866Z,9.20
2023-03-21T09:56:28.136Z,8.50
2023-03-21T09:58:59.764Z,8.25
2023-03-21T10:01:34.326Z,8.27
2023-03-21T10:04:04.940Z,9.25
2023-03-21T10:06:32.265Z,9.50
2023-03-21T10:09:30.330Z,10.38
2023-03-21T10:12:21.922Z,9.23
2023-03-21T10:14:52.588Z,8.10
2023-03-21T10:17:33.790Z,7.97
2023-03-21T10:20:12.043Z,9.70
2023-03-21T10:22:39.707Z,9.23
2023-03-21T10:25:07.785Z,8.82
2023-03-21T10:27:37.389Z,8.70
2023-03-21T10:30:07.652Z,9.05
2023-03-21T10:32:35.931Z,9.35
2023-03-21T10:35:05.263Z,8.05
2023-03-21T10:37:32.727Z,8.30
2023-03-21T10:39:59.614Z,8.85
2023-03-21T10:42:33.263Z,9.20
2023-03-21T10:45:00.261Z,8.32
2023-03-21T10:47:34.957Z,8.32
2023-03-21T10:50:13.423Z,9.80
2023-03-21T10:52:51.845Z,9.88
2023-03-21T10:55:25.228Z,8.52
2023-03-21T10:58:11.205Z,8.37
2023-03-21T11:00:41.564Z,10.15
2023-03-21T11:03:31.619Z,8.18
2023-03-21T11:06:12.482Z,9.35
2023-03-21T11:08:44.162Z,9.05
2023-03-21T11:11:20.231Z,9.45
2023-03-21T11:13:57.143Z,8.32
2023-03-21T11:16:30.212Z,9.85
2023-03-21T11:19:02.118Z,8.02
2023-03-21T11:21:36.476Z,7.82
2023-03-21T11:24:04.301Z,8.45
2023-03-21T11:26:37.660Z,8.00
2023-03-21T11:29:23.316Z,8.25
2023-03-21T11:31:50.150Z,8.50
2023-03-21T11:34:33.986Z,7.60
2023-03-21T11:37:02.745Z,10.60
2023-03-21T11:39:34.026Z,7.88
2023-03-21T11:42:01.086Z,7.75
2023-03-21T11:44:41.322Z,8.70
2023-03-21T11:47:10.941Z,9.13
2023-03-21T11:49:38.079Z,7.93
2023-03-21T11:52:19.278Z,8.52
2023-03-21T11:55:23.737Z,7.95
2023-03-21T11:58:14.988Z,7.60
2023-03-21T12:01:13.185Z,8.65
2023-03-21T12:04:01.581Z,9.65
2023-03-21T12:06:44.293Z,7.57
2023-03-21T12:09:28.206Z,7.68
2023-03-21T12:12:03.693Z,8.40
2023-03-21T12:14:44.902Z,7.88
2023-03-21T12:17:31.370Z,9.00
2023-03-21T12:20:12.170Z,9.55
2023-03-21T12:23:02.986Z,7.47
2023-03-21T12:25:45.605Z,8.52
2023-03-21T12:28:33.243Z,8.82
2023-03-21T12:31:12.456Z,7.35
2023-03-21T12:33:54.136Z,7.70
2023-03-21T12:36:33.914Z,9.52
2023-03-21T12:39:30.066Z,7.75
2023-03-21T12:42:19.514Z,7.78
2023-03-21T12:44:54.304Z,8.48
2023-03-21T12:47:26.708Z,8.10
2023-03-21T12:50:25.259Z,7.80
2023-03-21T12:53:00.311Z,9.88
2023-03-21T12:55:32.398Z,7.55
2023-03-21T12:58:11.717Z,9.98
2023-03-21T13:00:43.698Z,9.02
2023-03-21T13:03:22.883Z,7.78
2023-03-21T13:05:58.365Z,8.07
2023-03-21T13:08:44.672Z,8.43
2023-03-21T13:11:15.857Z,7.88
2023-03-21T13:13:49.425Z,9.02
2023-03-21T13:16:21.061Z,7.38
2023-03-21T13:19:02.918Z,7.43
2023-03-21T13:22:11.658Z,10.02
2023-03-21T13:24:43.997Z,7.97
2023-03-21T13:27:30.033Z,7.68
2023-03-21T13:30:07.789Z,7.30
2023-03-21T13:32:45.761Z,7.78
2023-03-21T13:35:18.485Z,8.10
2023-03-21T13:37:56.572Z,7.35
2023-03-21T13:40:29.102Z,7.47
2023-03-21T13:43:00.577Z,8.50
2023-03-21T13:45:33.526Z,8.65
2023-03-21T13:48:27.581Z,9.60
2023-03-21T13:51:04.948Z,7.53
2023-03-21T13:53:36.682Z,8.73
2023-03-21T13:56:21.450Z,8.15
2023-03-21T13:58:48.179Z,8.88
2023-03-21T14:01:35.977Z,7.53
2023-03-21T14:04:14.748Z,7.80
2023-03-21T14:06:55.028Z,7.78
2023-03-21T14:09:33.769Z,7.85
2023-03-21T14:12:07.696Z,9.13
2023-03-21T14:14:40.539Z,10.63
2023-03-21T14:17:34.898Z,9.15
2023-03-21T14:20:14.541Z,7.55
2023-03-21T14:22:41.390Z,10.05
2023-03-21T14:25:15.787Z,11.18
2023-03-21T14:27:50.526Z,10.93
2023-03-21T14:30:38.457Z,8.02
2023-03-21T14:33:12.708Z,7.85
2023-03-21T14:35:41.758Z,8.75
2023-03-21T14:38:19.127Z,8.93
2023-03-21T14:40:52.460Z,7.57
2023-03-21T14:43:21.053Z,7.50
2023-03-21T14:45:50.383Z,9.73
2023-03-21T14:48:17.807Z,7.53
2023-03-21T14:50:52.923Z,8.65
2023-03-21T14:53:27.150Z,7.45
2023-03-21T14:55:56.953Z,8.45
2023-03-21T14:58:24.223Z,8.02
2023-03-21T15:00:51.461Z,8.73
2023-03-21T15:03:20.741Z,8.18
2023-03-21T15:05:47.934Z,7.05
2023-03-21T15:08:19.770Z,7.25
2023-03-21T15:11:07.243Z,7.88
2023-03-21T15:13:45.542Z,8.55
2023-03-21T15:16:15.001Z,9.10
2023-03-21T15:18:43.087Z,10.30
2023-03-21T15:21:16.732Z,10.02
2023-03-21T15:23:46.623Z,9.93
2023-03-21T15:26:17.040Z,7.32
2023-03-21T15:28:47.192Z,8.40
2023-03-21T15:31:20.519Z,7.63
2023-03-21T15:33:53.502Z,6.50
2023-03-21T15:36:42.719Z,6.75
2023-03-21T15:39:14.223Z,13.40
2023-03-21T15:41:43.056Z,10.55
2023-03-21T15:44:09.693Z,7.28
2023-03-21T15:46:44.769Z,7.53
2023-03-21T15:49:17.280Z,6.15
2023-03-21T15:51:55.936Z,8.13
2023-03-21T15:54:29.269Z,7.75
2023-03-21T15:56:58.012Z,6.90
2023-03-21T15:59:27.777Z,6.40
2023-03-21T16:01:54.592Z,6.93
2023-03-21T16:04:23.848Z,5.88
2023-03-21T16:07:15.437Z,6.13
2023-03-21T16:09:46.148Z,6.88
2023-03-21T16:12:15.696Z,6.13
2023-03-21T16:14:43.190Z,6.57
2023-03-21T16:17:33.708Z,6.43
2023-03-21T16:20:00.798Z,7.93
2023-03-21T16:22:28.869Z,6.88
2023-03-21T16:24:56.499Z,21.23
2023-03-21T16:27:23.087Z,6.32
2023-03-21T16:29:49.716Z,8.70
2023-03-21T16:32:18.473Z,6.28
2023-03-21T16:34:46.300Z,9.95
2023-03-21T16:37:15.842Z,7.80
2023-03-21T16:39:43.221Z,9.60
2023-03-21T16:42:13.439Z,13.40
2023-03-21T16:44:40.548Z,8.35
2023-03-21T16:47:22.694Z,7.47
2023-03-21T16:49:49.939Z,6.85
2023-03-21T16:52:16.780Z,7.35
2023-03-21T16:54:43.599Z,6.07
2023-03-21T16:57:30.802Z,5.68
2023-03-21T16:59:57.755Z,6.35
2023-03-21T17:02:26.154Z,12.07
2023-03-21T17:04:53.075Z,5.93
2023-03-21T17:07:20.655Z,6.00
2023-03-21T17:09:48.141Z,5.68
2023-03-21T17:12:16.503Z,5.80
2023-03-21T17:14:44.320Z,5.40
2023-03-21T17:17:12.922Z,7.32
2023-03-21T17:19:40.233Z,5.13
2023-03-21T17:22:07.209Z,4.47
2023-03-21T17:24:34.803Z,4.25
2023-03-21T17:27:03.318Z,4.03
2023-03-21T17:29:30.604Z,3.97
2023-03-21T17:31:57.274Z,4.32
2023-03-21T17:34:24.191Z,3.95
2023-03-21T17:36:51.014Z,4.30
2023-03-21T17:39:24.232Z,4.10
2023-03-21T17:41:52.162Z,3.83
2023-03-21T17:44:19.899Z,4.75
2023-03-21T17:46:49.543Z,4.20
2023-03-21T17:49:17.328Z,4.45
2023-03-21T17:54:29.831Z,6.78
2023-03-21T17:56:56.673Z,4.50
2023-03-21T17:59:23.377Z,4.50
2023-03-21T18:01:50.742Z,4.30
2023-03-21T18:04:17.372Z,5.05
2023-03-21T18:06:44.914Z,5.55
2023-03-21T18:09:12.627Z,5.10
2023-03-21T18:11:40.335Z,4.57
2023-03-21T18:14:16.243Z,5.13
2023-03-21T18:16:45.806Z,5.05
2023-03-21T18:19:14.922Z,4.85
2023-03-21T18:21:45.252Z,3.92
2023-03-21T18:24:13.627Z,3.85
2023-03-21T18:26:41.099Z,4.05
2023-03-21T18:32:06.660Z,3.25
2023-03-21T18:34:37.124Z,3.83
2023-03-21T18:37:07.570Z,3.45
2023-03-21T18:39:40.388Z,3.70
2023-03-21T18:42:07.828Z,3.25
2023-03-21T18:44:45.670Z,3.80
2023-03-21T18:47:12.947Z,3.53
2023-03-21T18:52:27.600Z,3.58
2023-03-21T18:54:55.987Z,3.60
2023-03-21T18:57:45.764Z,3.78
2023-03-21T19:00:30.292Z,3.78
2023-03-21T19:14:28.093Z,6.80
2023-03-21T19:17:45.499Z,6.35
2023-03-21T19:19:43.453Z,3.97
2023-03-21T19:22:11.398Z,4.20
2023-03-21T19:24:39.803Z,3.42
2023-03-21T19:27:07.844Z,4.32
2023-03-21T19:29:34.525Z,5.03
2023-03-21T19:32:01.496Z,3.80
2023-03-21T19:34:29.462Z,5.28
2023-03-21T19:36:57.522Z,4.20
2023-03-21T19:39:25.155Z,4.88
2023-03-21T19:41:55.351Z,5.15
2023-03-21T19:44:28.313Z,5.40
2023-03-21T19:46:55.126Z,3.90
2023-03-21T19:49:34.556Z,3.35
2023-03-21T19:52:09.670Z,3.63
2023-03-21T19:54:39.502Z,3.80
2023-03-21T19:57:07.348Z,3.85
2023-03-21T19:59:34.278Z,4.60
2023-03-21T20:02:17.858Z,3.28
2023-03-21T20:04:48.347Z,4.15
2023-03-21T20:07:15.719Z,4.15
2023-03-21T20:09:52.349Z,4.15
2023-03-21T20:12:20.174Z,3.85
2023-03-21T20:14:49.060Z,4.40
2023-03-21T20:17:16.630Z,5.07
2023-03-21T20:19:43.466Z,4.47
2023-03-21T20:22:21.748Z,4.90
2023-03-21T20:24:53.945Z,4.55
2023-03-21T20:27:25.107Z,5.03
2023-03-21T20:30:10.145Z,5.28
2023-03-21T20:32:41.861Z,7.32
2023-03-21T20:35:20.804Z,5.63
2023-03-21T20:37:54.302Z,5.80
2023-03-21T20:40:21.505Z,5.95
2023-03-21T20:42:48.868Z,7.03
2023-03-21T20:45:17.312Z,6.88
2023-03-21T20:47:44.133Z,7.30
2023-03-21T20:50:14.054Z,8.27
2023-03-21T20:53:07.003Z,6.72
2023-03-21T20:55:31.560Z,5.28
2023-03-21T20:58:02.091Z,5.55
2023-03-21T21:00:30.011Z,6.55
2023-03-21T21:02:57.810Z,6.63
2023-03-21T21:05:33.003Z,5.45
2023-03-21T21:08:01.431Z,5.90
2023-03-21T21:10:28.820Z,5.97
2023-03-21T21:12:55.627Z,4.90
2023-03-21T21:15:22.229Z,5.30
2023-03-21T21:18:07.125Z,8.38
2023-03-21T21:20:36.120Z,15.88
2023-03-21T21:23:03.120Z,21.80
2023-03-21T21:25:33.141Z,22.33
2023-03-21T21:28:01.845Z,12.93
2023-03-21T21:30:29.679Z,9.82
2023-03-21T21:32:59.545Z,15.00
2023-03-21T21:35:26.504Z,12.60
2023-03-21T21:37:53.948Z,10.45
2023-03-21T21:40:23.411Z,13.27
2023-03-21T21:42:50.224Z,11.40
2023-03-21T21:45:18.627Z,10.55
2023-03-21T21:47:46.518Z,7.35
2023-03-21T21:50:14.386Z,7.28
2023-03-21T21:52:43.992Z,7.78
2023-03-21T21:55:10.925Z,9.52
2023-03-21T21:57:39.753Z,7.72
2023-03-21T22:00:12.963Z,7.88
2023-03-21T22:02:41.754Z,9.45
2023-03-21T22:05:09.216Z,10.05
2023-03-21T22:07:37.621Z,7.47
2023-03-21T22:10:04.970Z,10.98
2023-03-21T22:12:32.360Z,9.02
2023-03-21T22:14:59.214Z,7.90
2023-03-21T22:17:25.820Z,6.95
2023-03-21T22:20:04.647Z,8.68
2023-03-21T22:22:34.256Z,7.22
2023-03-21T22:25:01.489Z,7.25
2023-03-21T22:27:28.117Z,7.75
2023-03-21T22:29:54.874Z,8.15
2023-03-21T22:32:21.917Z,9.20
2023-03-21T22:34:48.852Z,8.63
2023-03-21T22:37:15.748Z,5.97
2023-03-21T22:39:42.756Z,11.23
2023-03-21T22:42:09.323Z,109.30
2023-03-21T22:44:36.250Z,8.02
2023-03-21T22:47:05.278Z,5.50
2023-03-21T22:49:32.385Z,5.85
2023-03-21T22:52:00.132Z,6.78
2023-03-21T22:54:27.512Z,6.28
2023-03-21T22:56:54.165Z,5.50
2023-03-21T22:59:21.338Z,6.30
2023-03-21T23:01:48.504Z,6.15
2023-03-21T23:04:15.681Z,5.82
2023-03-21T23:06:42.562Z,6.28
2023-03-21T23:09:09.934Z,5.55
2023-03-21T23:11:40.361Z,6.25
2023-03-21T23:14:08.897Z,9.27
2023-03-21T23:16:38.351Z,6.97
2023-03-21T23:19:06.166Z,6.72
2023-03-21T23:21:34.670Z,5.90
2023-03-21T23:24:01.618Z,7.22
2023-03-21T23:26:28.633Z,7.22
2023-03-21T23:28:55.490Z,8.13
2023-03-21T23:31:24.492Z,7.22
2023-03-21T23:33:51.244Z,7.75
2023-03-21T23:36:19.726Z,9.50
2023-03-21T23:38:46.421Z,8.52
2023-03-21T23:41:19.003Z,8.50
2023-03-21T23:43:47.203Z,9.18
2023-03-21T23:46:15.568Z,8.38
2023-03-21T23:48:43.257Z,8.93
2023-03-21T23:51:12.049Z,9.70
2023-03-21T23:53:39.365Z,8.20
2023-03-21T23:56:13.865Z,10.23
2023-03-21T23:58:40.703Z,7.70
